sensor_id;sensor_type;location;lat;lon;timestamp;P1;durP1;ratioP1;P2;durP2;ratioP2
74821;SDS011;63353;48.702;8.884;2022-09-21T00:03:53;13.83;;;8.77;;
74821;SDS011;63353;48.702;8.884;2022-09-21T00:06:21;15.60;;;8.27;;
74821;SDS011;63353;48.702;8.884;2022-09-21T00:08:48;15.90;;;9.07;;
74821;SDS011;63353;48.702;8.884;2022-09-21T00:11:17;17.73;;;8.80;;
74821;SDS011;63353;48.702;8.884;2022-09-21T00:13:50;13.90;;;8.30;;
74821;SDS011;63353;48.702;8.884;2022-09-21T00:16:19;13.07;;;8.37;;
74821;SDS011;63353;48.702;8.884;2022-09-21T00:18:45;13.80;;;7.63;;
74821;SDS011;63353;48.702;8.884;2022-09-21T00:21:13;12.53;;;8.10;;
74821;SDS011;63353;48.702;8.884;2022-09-21T00:23:40;12.70;;;8.30;;
74821;SDS011;63353;48.702;8.884;2022-09-21T00:26:07;12.63;;;7.57;;
74821;SDS011;63353;48.702;8.884;2022-09-21T00:28:34;11.37;;;7.53;;
74821;SDS011;63353;48.702;8.884;2022-09-21T00:31:04;13.90;;;8.10;;
74821;SDS011;63353;48.702;8.884;2022-09-21T00:33:31;11.87;;;7.40;;
74821;SDS011;63353;48.702;8.884;2022-09-21T00:36:04;11.70;;;6.93;;
74821;SDS011;63353;48.702;8.884;2022-09-21T00:38:31;10.00;;;7.07;;
74821;SDS011;63353;48.702;8.884;2022-09-21T00:40:57;15.30;;;8.03;;
74821;SDS011;63353;48.702;8.884;2022-09-21T00:43:23;11.30;;;6.80;;
74821;SDS011;63353;48.702;8.884;2022-09-21T00:45:49;12.20;;;7.40;;
74821;SDS011;63353;48.702;8.884;2022-09-21T00:48:29;13.00;;;8.10;;
74821;SDS011;63353;48.702;8.884;2022-09-21T00:50:56;12.63;;;7.53;;
74821;SDS011;63353;48.702;8.884;2022-09-21T00:53:26;11.70;;;8.20;;
74821;SDS011;63353;48.702;8.884;2022-09-21T00:55:53;12.73;;;8.57;;
74821;SDS011;63353;48.702;8.884;2022-09-21T00:58:22;14.03;;;8.67;;
74821;SDS011;63353;48.702;8.884;2022-09-21T01:00:53;12.33;;;8.00;;
74821;SDS011;63353;48.702;8.884;2022-09-21T01:03:20;12.60;;;7.63;;
74821;SDS011;63353;48.702;8.884;2022-09-21T01:05:46;11.17;;;7.50;;
74821;SDS011;63353;48.702;8.884;2022-09-21T01:08:11;15.73;;;7.57;;
74821;SDS011;63353;48.702;8.884;2022-09-21T01:30:13;11.87;;;7.20;;
74821;SDS011;63353;48.702;8.884;2022-09-21T01:37:46;12.47;;;7.47;;
74821;SDS011;63353;48.702;8.884;2022-09-21T01:40:22;10.60;;;7.20;;
74821;SDS011;63353;48.702;8.884;2022-09-21T01:42:53;12.73;;;8.90;;
74821;SDS011;63353;48.702;8.884;2022-09-21T01:45:23;15.40;;;9.00;;
74821;SDS011;63353;48.702;8.884;2022-09-21T01:48:06;15.60;;;8.60;;
74821;SDS011;63353;48.702;8.884;2022-09-21T01:50:44;14.27;;;9.10;;
74821;SDS011;63353;48.702;8.884;2022-09-21T01:53:18;13.53;;;8.17;;
74821;SDS011;63353;48.702;8.884;2022-09-21T01:55:49;12.53;;;7.83;;
74821;SDS011;63353;48.702;8.884;2022-09-21T02:00:48;12.00;;;7.60;;
74821;SDS011;63353;48.702;8.884;2022-09-21T02:03:29;12.70;;;8.13;;
74821;SDS011;63353;48.702;8.884;2022-09-21T02:05:57;16.73;;;8.50;;
74821;SDS011;63353;48.702;8.884;2022-09-21T02:08:25;12.37;;;8.53;;
74821;SDS011;63353;48.702;8.884;2022-09-21T02:10:52;14.80;;;8.43;;
74821;SDS011;63353;48.702;8.884;2022-09-21T02:13:19;17.13;;;8.77;;
74821;SDS011;63353;48.702;8.884;2022-09-21T02:18:42;13.77;;;7.87;;
74821;SDS011;63353;48.702;8.884;2022-09-21T02:21:12;15.10;;;8.97;;
74821;SDS011;63353;48.702;8.884;2022-09-21T02:24:07;13.77;;;8.40;;
74821;SDS011;63353;48.702;8.884;2022-09-21T02:26:53;15.50;;;8.67;;
74821;SDS011;63353;48.702;8.884;2022-09-21T02:29:32;15.03;;;8.83;;
74821;SDS011;63353;48.702;8.884;2022-09-21T02:32:27;11.30;;;7.63;;
74821;SDS011;63353;48.702;8.884;2022-09-21T02:41:02;11.60;;;8.03;;
74821;SDS011;63353;48.702;8.884;2022-09-21T02:46:26;14.90;;;8.07;;
74821;SDS011;63353;48.702;8.884;2022-09-21T02:48:54;14.00;;;8.40;;
74821;SDS011;63353;48.702;8.884;2022-09-21T02:51:35;12.67;;;8.07;;
74821;SDS011;63353;48.702;8.884;2022-09-21T02:54:07;15.13;;;8.20;;
74821;SDS011;63353;48.702;8.884;2022-09-21T02:56:37;12.90;;;8.00;;
74821;SDS011;63353;48.702;8.884;2022-09-21T02:59:05;12.40;;;8.60;;
74821;SDS011;63353;48.702;8.884;2022-09-21T03:01:32;11.73;;;8.03;;
74821;SDS011;63353;48.702;8.884;2022-09-21T03:03:58;13.73;;;7.80;;
74821;SDS011;63353;48.702;8.884;2022-09-21T03:06:24;18.13;;;8.87;;
74821;SDS011;63353;48.702;8.884;2022-09-21T03:08:51;16.07;;;8.90;;
74821;SDS011;63353;48.702;8.884;2022-09-21T03:11:17;12.53;;;8.30;;
74821;SDS011;63353;48.702;8.884;2022-09-21T03:13:44;12.40;;;7.33;;
74821;SDS011;63353;48.702;8.884;2022-09-21T03:16:10;12.67;;;7.80;;
74821;SDS011;63353;48.702;8.884;2022-09-21T03:18:36;12.83;;;7.50;;
74821;SDS011;63353;48.702;8.884;2022-09-21T03:21:04;18.03;;;8.47;;
74821;SDS011;63353;48.702;8.884;2022-09-21T03:23:30;11.10;;;7.13;;
74821;SDS011;63353;48.702;8.884;2022-09-21T03:25:56;10.73;;;7.03;;
74821;SDS011;63353;48.702;8.884;2022-09-21T03:28:22;11.53;;;7.70;;
74821;SDS011;63353;48.702;8.884;2022-09-21T03:30:48;15.03;;;8.60;;
74821;SDS011;63353;48.702;8.884;2022-09-21T03:33:15;11.07;;;7.43;;
74821;SDS011;63353;48.702;8.884;2022-09-21T03:35:41;10.57;;;6.83;;
74821;SDS011;63353;48.702;8.884;2022-09-21T03:38:07;13.77;;;7.60;;
74821;SDS011;63353;48.702;8.884;2022-09-21T03:40:32;13.77;;;7.87;;
74821;SDS011;63353;48.702;8.884;2022-09-21T03:42:58;13.27;;;8.30;;
74821;SDS011;63353;48.702;8.884;2022-09-21T03:45:24;13.03;;;7.37;;
74821;SDS011;63353;48.702;8.884;2022-09-21T03:47:53;11.57;;;7.30;;
74821;SDS011;63353;48.702;8.884;2022-09-21T03:50:27;13.00;;;7.80;;
74821;SDS011;63353;48.702;8.884;2022-09-21T03:52:53;14.23;;;7.23;;
74821;SDS011;63353;48.702;8.884;2022-09-21T03:55:19;10.53;;;7.70;;
74821;SDS011;63353;48.702;8.884;2022-09-21T03:57:45;11.53;;;7.07;;
74821;SDS011;63353;48.702;8.884;2022-09-21T04:00:11;12.40;;;7.13;;
74821;SDS011;63353;48.702;8.884;2022-09-21T04:02:37;10.90;;;7.10;;
74821;SDS011;63353;48.702;8.884;2022-09-21T04:05:05;13.20;;;7.70;;
74821;SDS011;63353;48.702;8.884;2022-09-21T04:07:32;13.03;;;7.73;;
74821;SDS011;63353;48.702;8.884;2022-09-21T04:10:03;16.57;;;9.20;;
74821;SDS011;63353;48.702;8.884;2022-09-21T04:12:31;11.40;;;7.47;;
74821;SDS011;63353;48.702;8.884;2022-09-21T04:14:58;16.70;;;9.37;;
74821;SDS011;63353;48.702;8.884;2022-09-21T04:17:29;17.27;;;8.70;;
74821;SDS011;63353;48.702;8.884;2022-09-21T04:19:55;13.47;;;8.00;;
74821;SDS011;63353;48.702;8.884;2022-09-21T04:22:21;18.07;;;8.70;;
74821;SDS011;63353;48.702;8.884;2022-09-21T04:24:48;12.57;;;7.97;;
74821;SDS011;63353;48.702;8.884;2022-09-21T04:27:14;12.90;;;7.30;;
74821;SDS011;63353;48.702;8.884;2022-09-21T04:29:40;14.70;;;8.23;;
74821;SDS011;63353;48.702;8.884;2022-09-21T04:32:06;13.00;;;7.67;;
74821;SDS011;63353;48.702;8.884;2022-09-21T04:34:31;11.40;;;6.83;;
74821;SDS011;63353;48.702;8.884;2022-09-21T04:36:57;15.50;;;8.50;;
74821;SDS011;63353;48.702;8.884;2022-09-21T04:39:24;15.27;;;8.47;;
74821;SDS011;63353;48.702;8.884;2022-09-21T04:41:50;15.07;;;8.80;;
74821;SDS011;63353;48.702;8.884;2022-09-21T04:44:16;15.33;;;8.27;;
74821;SDS011;63353;48.702;8.884;2022-09-21T04:46:44;16.57;;;10.13;;
74821;SDS011;63353;48.702;8.884;2022-09-21T04:49:10;13.53;;;9.33;;
74821;SDS011;63353;48.702;8.884;2022-09-21T04:51:36;14.23;;;7.73;;
74821;SDS011;63353;48.702;8.884;2022-09-21T04:54:02;14.50;;;7.40;;
74821;SDS011;63353;48.702;8.884;2022-09-21T04:56:28;14.67;;;8.23;;
74821;SDS011;63353;48.702;8.884;2022-09-21T04:58:54;15.07;;;9.83;;
74821;SDS011;63353;48.702;8.884;2022-09-21T05:01:20;14.33;;;8.17;;
74821;SDS011;63353;48.702;8.884;2022-09-21T05:03:46;12.27;;;8.00;;
74821;SDS011;63353;48.702;8.884;2022-09-21T05:06:11;11.23;;;7.30;;
74821;SDS011;63353;48.702;8.884;2022-09-21T05:08:37;12.90;;;7.67;;
74821;SDS011;63353;48.702;8.884;2022-09-21T05:11:22;11.90;;;7.30;;
74821;SDS011;63353;48.702;8.884;2022-09-21T05:13:48;14.93;;;8.03;;
74821;SDS011;63353;48.702;8.884;2022-09-21T05:16:15;22.13;;;11.30;;
74821;SDS011;63353;48.702;8.884;2022-09-21T05:18:41;14.17;;;8.27;;
74821;SDS011;63353;48.702;8.884;2022-09-21T05:21:08;15.70;;;8.93;;
74821;SDS011;63353;48.702;8.884;2022-09-21T05:23:35;19.63;;;9.53;;
74821;SDS011;63353;48.702;8.884;2022-09-21T05:26:00;33.83;;;19.20;;
74821;SDS011;63353;48.702;8.884;2022-09-21T05:28:26;25.33;;;14.97;;
74821;SDS011;63353;48.702;8.884;2022-09-21T05:30:54;18.17;;;9.90;;
74821;SDS011;63353;48.702;8.884;2022-09-21T05:33:25;18.67;;;10.43;;
74821;SDS011;63353;48.702;8.884;2022-09-21T05:36:03;14.10;;;8.20;;
74821;SDS011;63353;48.702;8.884;2022-09-21T05:38:40;15.70;;;8.23;;
74821;SDS011;63353;48.702;8.884;2022-09-21T05:41:07;14.87;;;8.93;;
74821;SDS011;63353;48.702;8.884;2022-09-21T05:43:33;16.00;;;8.43;;
74821;SDS011;63353;48.702;8.884;2022-09-21T05:46:02;17.17;;;8.30;;
74821;SDS011;63353;48.702;8.884;2022-09-21T05:48:41;14.40;;;8.07;;
74821;SDS011;63353;48.702;8.884;2022-09-21T05:59:17;26.67;;;10.57;;
74821;SDS011;63353;48.702;8.884;2022-09-21T06:01:58;23.27;;;10.30;;
74821;SDS011;63353;48.702;8.884;2022-09-21T06:04:23;26.37;;;11.67;;
74821;SDS011;63353;48.702;8.884;2022-09-21T06:06:49;29.23;;;11.73;;
74821;SDS011;63353;48.702;8.884;2022-09-21T06:09:15;15.33;;;9.07;;
74821;SDS011;63353;48.702;8.884;2022-09-21T06:11:41;16.37;;;9.27;;
74821;SDS011;63353;48.702;8.884;2022-09-21T06:14:06;30.90;;;11.80;;
74821;SDS011;63353;48.702;8.884;2022-09-21T06:16:36;20.37;;;10.70;;
74821;SDS011;63353;48.702;8.884;2022-09-21T06:19:05;23.37;;;11.10;;
74821;SDS011;63353;48.702;8.884;2022-09-21T06:21:34;32.20;;;12.27;;
74821;SDS011;63353;48.702;8.884;2022-09-21T06:24:00;23.37;;;10.57;;
74821;SDS011;63353;48.702;8.884;2022-09-21T06:26:26;24.13;;;11.10;;
74821;SDS011;63353;48.702;8.884;2022-09-21T06:28:52;21.60;;;10.73;;
74821;SDS011;63353;48.702;8.884;2022-09-21T06:31:17;22.70;;;11.03;;
74821;SDS011;63353;48.702;8.884;2022-09-21T06:33:43;23.00;;;13.23;;
74821;SDS011;63353;48.702;8.884;2022-09-21T06:36:08;25.60;;;16.37;;
74821;SDS011;63353;48.702;8.884;2022-09-21T06:38:34;19.70;;;13.30;;
74821;SDS011;63353;48.702;8.884;2022-09-21T06:41:01;19.70;;;13.33;;
74821;SDS011;63353;48.702;8.884;2022-09-21T06:43:28;20.97;;;13.60;;
74821;SDS011;63353;48.702;8.884;2022-09-21T06:45:54;23.07;;;13.00;;
74821;SDS011;63353;48.702;8.884;2022-09-21T06:48:22;17.83;;;13.07;;
74821;SDS011;63353;48.702;8.884;2022-09-21T06:50:48;20.73;;;14.87;;
74821;SDS011;63353;48.702;8.884;2022-09-21T06:53:14;27.93;;;18.80;;
74821;SDS011;63353;48.702;8.884;2022-09-21T06:55:40;23.63;;;15.53;;
74821;SDS011;63353;48.702;8.884;2022-09-21T06:58:06;23.37;;;16.73;;
74821;SDS011;63353;48.702;8.884;2022-09-21T07:00:31;28.33;;;16.87;;
74821;SDS011;63353;48.702;8.884;2022-09-21T07:02:57;26.43;;;13.70;;
74821;SDS011;63353;48.702;8.884;2022-09-21T07:05:23;22.03;;;12.23;;
74821;SDS011;63353;48.702;8.884;2022-09-21T07:07:49;20.40;;;12.03;;
74821;SDS011;63353;48.702;8.884;2022-09-21T07:10:15;20.47;;;12.17;;
74821;SDS011;63353;48.702;8.884;2022-09-21T07:12:41;26.77;;;17.73;;
74821;SDS011;63353;48.702;8.884;2022-09-21T07:15:07;27.63;;;17.13;;
74821;SDS011;63353;48.702;8.884;2022-09-21T07:17:35;17.57;;;11.70;;
74821;SDS011;63353;48.702;8.884;2022-09-21T07:20:02;18.23;;;10.70;;
74821;SDS011;63353;48.702;8.884;2022-09-21T07:22:30;20.73;;;11.57;;
74821;SDS011;63353;48.702;8.884;2022-09-21T07:24:56;17.37;;;11.13;;
74821;SDS011;63353;48.702;8.884;2022-09-21T07:27:22;15.83;;;10.30;;
74821;SDS011;63353;48.702;8.884;2022-09-21T07:29:49;16.60;;;10.70;;
74821;SDS011;63353;48.702;8.884;2022-09-21T07:32:15;17.53;;;10.30;;
74821;SDS011;63353;48.702;8.884;2022-09-21T07:34:41;18.47;;;10.50;;
74821;SDS011;63353;48.702;8.884;2022-09-21T07:37:06;13.83;;;8.83;;
74821;SDS011;63353;48.702;8.884;2022-09-21T07:39:32;17.07;;;10.43;;
74821;SDS011;63353;48.702;8.884;2022-09-21T07:41:59;13.27;;;8.30;;
74821;SDS011;63353;48.702;8.884;2022-09-21T07:44:25;12.33;;;8.37;;
74821;SDS011;63353;48.702;8.884;2022-09-21T07:46:51;10.43;;;7.53;;
74821;SDS011;63353;48.702;8.884;2022-09-21T07:49:16;11.20;;;7.83;;
74821;SDS011;63353;48.702;8.884;2022-09-21T07:51:42;14.40;;;8.07;;
74821;SDS011;63353;48.702;8.884;2022-09-21T07:54:08;11.63;;;8.07;;
74821;SDS011;63353;48.702;8.884;2022-09-21T07:56:37;11.07;;;9.13;;
74821;SDS011;63353;48.702;8.884;2022-09-21T07:59:03;11.17;;;7.50;;
74821;SDS011;63353;48.702;8.884;2022-09-21T08:01:30;10.63;;;7.93;;
74821;SDS011;63353;48.702;8.884;2022-09-21T08:04:00;12.57;;;8.33;;
74821;SDS011;63353;48.702;8.884;2022-09-21T08:06:28;15.67;;;11.73;;
74821;SDS011;63353;48.702;8.884;2022-09-21T08:08:56;12.53;;;9.33;;
74821;SDS011;63353;48.702;8.884;2022-09-21T08:11:23;9.80;;;7.63;;
74821;SDS011;63353;48.702;8.884;2022-09-21T08:13:53;15.20;;;9.93;;
74821;SDS011;63353;48.702;8.884;2022-09-21T08:16:20;10.60;;;7.27;;
74821;SDS011;63353;48.702;8.884;2022-09-21T08:18:47;11.07;;;7.03;;
74821;SDS011;63353;48.702;8.884;2022-09-21T08:21:14;12.07;;;7.10;;
74821;SDS011;63353;48.702;8.884;2022-09-21T08:23:39;10.37;;;7.17;;
74821;SDS011;63353;48.702;8.884;2022-09-21T08:26:07;12.90;;;7.10;;
74821;SDS011;63353;48.702;8.884;2022-09-21T08:28:36;10.10;;;6.40;;
74821;SDS011;63353;48.702;8.884;2022-09-21T08:31:03;12.80;;;7.10;;
74821;SDS011;63353;48.702;8.884;2022-09-21T08:33:32;8.70;;;6.50;;
74821;SDS011;63353;48.702;8.884;2022-09-21T08:35:58;9.60;;;5.87;;
74821;SDS011;63353;48.702;8.884;2022-09-21T08:38:25;8.07;;;5.93;;
74821;SDS011;63353;48.702;8.884;2022-09-21T08:40:51;8.77;;;5.70;;
74821;SDS011;63353;48.702;8.884;2022-09-21T08:43:25;7.70;;;5.43;;
74821;SDS011;63353;48.702;8.884;2022-09-21T08:45:57;9.10;;;5.83;;
74821;SDS011;63353;48.702;8.884;2022-09-21T08:48:25;7.47;;;4.93;;
74821;SDS011;63353;48.702;8.884;2022-09-21T08:50:56;6.27;;;4.83;;
74821;SDS011;63353;48.702;8.884;2022-09-21T08:53:42;5.97;;;4.80;;
74821;SDS011;63353;48.702;8.884;2022-09-21T08:56:13;5.97;;;4.30;;
74821;SDS011;63353;48.702;8.884;2022-09-21T08:58:40;3.63;;;3.17;;
74821;SDS011;63353;48.702;8.884;2022-09-21T09:03:48;4.00;;;3.60;;
74821;SDS011;63353;48.702;8.884;2022-09-21T09:20:28;4.90;;;3.30;;
74821;SDS011;63353;48.702;8.884;2022-09-21T09:23:11;3.83;;;2.83;;
74821;SDS011;63353;48.702;8.884;2022-09-21T09:25:57;5.13;;;4.47;;
74821;SDS011;63353;48.702;8.884;2022-09-21T09:29:10;18.07;;;13.13;;
74821;SDS011;63353;48.702;8.884;2022-09-21T09:31:27;4.73;;;3.73;;
74821;SDS011;63353;48.702;8.884;2022-09-21T09:37:22;3.00;;;2.70;;
74821;SDS011;63353;48.702;8.884;2022-09-21T09:39:42;3.57;;;2.83;;
74821;SDS011;63353;48.702;8.884;2022-09-21T09:47:26;8.80;;;7.17;;
74821;SDS011;63353;48.702;8.884;2022-09-21T09:50:12;5.27;;;3.40;;
74821;SDS011;63353;48.702;8.884;2022-09-21T09:52:46;14.90;;;10.40;;
74821;SDS011;63353;48.702;8.884;2022-09-21T09:57:44;6.83;;;2.73;;
74821;SDS011;63353;48.702;8.884;2022-09-21T10:00:12;8.47;;;6.50;;
74821;SDS011;63353;48.702;8.884;2022-09-21T10:02:46;3.17;;;2.43;;
74821;SDS011;63353;48.702;8.884;2022-09-21T10:05:33;19.63;;;12.47;;
74821;SDS011;63353;48.702;8.884;2022-09-21T10:08:02;12.37;;;7.37;;
74821;SDS011;63353;48.702;8.884;2022-09-21T10:12:56;1.90;;;1.70;;
74821;SDS011;63353;48.702;8.884;2022-09-21T10:15:26;6.30;;;5.63;;
74821;SDS011;63353;48.702;8.884;2022-09-21T10:20:35;2.80;;;2.30;;
74821;SDS011;63353;48.702;8.884;2022-09-21T10:23:00;2.60;;;1.70;;
74821;SDS011;63353;48.702;8.884;2022-09-21T10:25:27;1.70;;;1.57;;
74821;SDS011;63353;48.702;8.884;2022-09-21T10:27:54;1.73;;;1.60;;
74821;SDS011;63353;48.702;8.884;2022-09-21T10:32:59;1.83;;;1.70;;
74821;SDS011;63353;48.702;8.884;2022-09-21T10:35:26;1.90;;;1.50;;
74821;SDS011;63353;48.702;8.884;2022-09-21T10:38:37;3.73;;;2.30;;
74821;SDS011;63353;48.702;8.884;2022-09-21T10:40:42;5.97;;;2.77;;
74821;SDS011;63353;48.702;8.884;2022-09-21T10:43:28;3.83;;;2.00;;
74821;SDS011;63353;48.702;8.884;2022-09-21T10:46:00;2.00;;;1.77;;
74821;SDS011;63353;48.702;8.884;2022-09-21T10:48:26;2.13;;;1.93;;
74821;SDS011;63353;48.702;8.884;2022-09-21T10:50:53;2.13;;;1.70;;
74821;SDS011;63353;48.702;8.884;2022-09-21T10:53:24;5.43;;;1.80;;
74821;SDS011;63353;48.702;8.884;2022-09-21T10:58:41;3.30;;;2.93;;
74821;SDS011;63353;48.702;8.884;2022-09-21T11:01:45;1.70;;;1.60;;
74821;SDS011;63353;48.702;8.884;2022-09-21T11:06:59;1.90;;;1.80;;
74821;SDS011;63353;48.702;8.884;2022-09-21T11:15:50;2.13;;;1.60;;
74821;SDS011;63353;48.702;8.884;2022-09-21T11:23:07;1.87;;;1.77;;
74821;SDS011;63353;48.702;8.884;2022-09-21T11:25:44;3.37;;;2.10;;
74821;SDS011;63353;48.702;8.884;2022-09-21T11:28:23;2.30;;;2.10;;
74821;SDS011;63353;48.702;8.884;2022-09-21T11:33:32;1.97;;;1.87;;
74821;SDS011;63353;48.702;8.884;2022-09-21T11:36:31;2.70;;;2.37;;
74821;SDS011;63353;48.702;8.884;2022-09-21T11:39:23;2.40;;;1.90;;
74821;SDS011;63353;48.702;8.884;2022-09-21T11:44:30;3.47;;;2.30;;
74821;SDS011;63353;48.702;8.884;2022-09-21T12:00:47;2.20;;;2.10;;
74821;SDS011;63353;48.702;8.884;2022-09-21T12:06:05;2.97;;;2.30;;
74821;SDS011;63353;48.702;8.884;2022-09-21T12:08:46;2.37;;;2.10;;
74821;SDS011;63353;48.702;8.884;2022-09-21T12:19:50;2.90;;;1.60;;
74821;SDS011;63353;48.702;8.884;2022-09-21T12:22:34;1.73;;;1.60;;
74821;SDS011;63353;48.702;8.884;2022-09-21T12:25:09;2.57;;;1.60;;
74821;SDS011;63353;48.702;8.884;2022-09-21T12:33:02;1.40;;;1.33;;
74821;SDS011;63353;48.702;8.884;2022-09-21T12:35:39;1.30;;;1.20;;
74821;SDS011;63353;48.702;8.884;2022-09-21T12:41:01;2.23;;;1.40;;
74821;SDS011;63353;48.702;8.884;2022-09-21T12:48:39;2.40;;;1.60;;
74821;SDS011;63353;48.702;8.884;2022-09-21T12:53:47;1.73;;;1.63;;
74821;SDS011;63353;48.702;8.884;2022-09-21T12:56:31;1.87;;;1.77;;
74821;SDS011;63353;48.702;8.884;2022-09-21T13:02:33;1.73;;;1.63;;
74821;SDS011;63353;48.702;8.884;2022-09-21T13:05:32;1.60;;;1.50;;
74821;SDS011;63353;48.702;8.884;2022-09-21T13:08:23;1.70;;;1.60;;
74821;SDS011;63353;48.702;8.884;2022-09-21T13:15:52;1.17;;;1.17;;
74821;SDS011;63353;48.702;8.884;2022-09-21T13:18:20;1.47;;;1.20;;
74821;SDS011;63353;48.702;8.884;2022-09-21T13:20:53;1.50;;;1.40;;
74821;SDS011;63353;48.702;8.884;2022-09-21T13:26:10;1.40;;;1.30;;
74821;SDS011;63353;48.702;8.884;2022-09-21T13:34:26;1.40;;;1.40;;
74821;SDS011;63353;48.702;8.884;2022-09-21T13:39:34;1.73;;;1.60;;
74821;SDS011;63353;48.702;8.884;2022-09-21T13:41:59;1.80;;;1.40;;
74821;SDS011;63353;48.702;8.884;2022-09-21T13:44:54;3.77;;;3.47;;
74821;SDS011;63353;48.702;8.884;2022-09-21T13:47:43;2.00;;;1.80;;
74821;SDS011;63353;48.702;8.884;2022-09-21T13:50:30;2.50;;;2.30;;
74821;SDS011;63353;48.702;8.884;2022-09-21T13:53:07;2.53;;;2.07;;
74821;SDS011;63353;48.702;8.884;2022-09-21T13:55:51;3.07;;;2.87;;
74821;SDS011;63353;48.702;8.884;2022-09-21T13:58:28;3.50;;;3.20;;
74821;SDS011;63353;48.702;8.884;2022-09-21T14:01:11;2.10;;;2.00;;
74821;SDS011;63353;48.702;8.884;2022-09-21T14:06:19;1.73;;;1.60;;
74821;SDS011;63353;48.702;8.884;2022-09-21T14:09:37;5.10;;;4.70;;
74821;SDS011;63353;48.702;8.884;2022-09-21T14:11:55;2.73;;;2.50;;
74821;SDS011;63353;48.702;8.884;2022-09-21T14:17:00;1.90;;;1.80;;
74821;SDS011;63353;48.702;8.884;2022-09-21T14:22:39;1.97;;;1.83;;
74821;SDS011;63353;48.702;8.884;2022-09-21T14:27:18;2.80;;;2.50;;
74821;SDS011;63353;48.702;8.884;2022-09-21T14:29:52;1.70;;;1.60;;
74821;SDS011;63353;48.702;8.884;2022-09-21T14:32:27;1.67;;;1.57;;
74821;SDS011;63353;48.702;8.884;2022-09-21T14:35:04;25.80;;;15.73;;
74821;SDS011;63353;48.702;8.884;2022-09-21T14:37:36;6.77;;;6.10;;
74821;SDS011;63353;48.702;8.884;2022-09-21T14:42:40;3.70;;;3.40;;
74821;SDS011;63353;48.702;8.884;2022-09-21T14:45:09;1.97;;;1.80;;
74821;SDS011;63353;48.702;8.884;2022-09-21T14:50:24;4.50;;;4.20;;
74821;SDS011;63353;48.702;8.884;2022-09-21T15:00:55;2.57;;;2.37;;
74821;SDS011;63353;48.702;8.884;2022-09-21T15:07:05;2.23;;;2.13;;
74821;SDS011;63353;48.702;8.884;2022-09-21T15:18:17;12.23;;;8.97;;
74821;SDS011;63353;48.702;8.884;2022-09-21T15:20:55;1.80;;;1.70;;
74821;SDS011;63353;48.702;8.884;2022-09-21T15:23:47;16.40;;;12.83;;
74821;SDS011;63353;48.702;8.884;2022-09-21T15:26:31;5.03;;;4.43;;
74821;SDS011;63353;48.702;8.884;2022-09-21T15:28:58;6.20;;;5.07;;
74821;SDS011;63353;48.702;8.884;2022-09-21T15:31:32;3.20;;;2.72;;
74821;SDS011;63353;48.702;8.884;2022-09-21T15:34:03;2.13;;;1.55;;
74821;SDS011;63353;48.702;8.884;2022-09-21T15:36:30;8.73;;;7.82;;
74821;SDS011;63353;48.702;8.884;2022-09-21T15:39:01;5.82;;;5.28;;
74821;SDS011;63353;48.702;8.884;2022-09-21T15:44:21;2.30;;;2.10;;
74821;SDS011;63353;48.702;8.884;2022-09-21T15:46:52;2.13;;;2.03;;
74821;SDS011;63353;48.702;8.884;2022-09-21T15:49:24;5.18;;;4.32;;
74821;SDS011;63353;48.702;8.884;2022-09-21T15:51:53;2.80;;;2.60;;
74821;SDS011;63353;48.702;8.884;2022-09-21T15:54:33;5.15;;;4.75;;
74821;SDS011;63353;48.702;8.884;2022-09-21T15:57:22;2.20;;;2.10;;
74821;SDS011;63353;48.702;8.884;2022-09-21T15:59:54;1.75;;;1.65;;
74821;SDS011;63353;48.702;8.884;2022-09-21T16:02:21;1.67;;;1.58;;
74821;SDS011;63353;48.702;8.884;2022-09-21T16:04:49;2.08;;;1.90;;
74821;SDS011;63353;48.702;8.884;2022-09-21T16:07:35;1.45;;;1.38;;
74821;SDS011;63353;48.702;8.884;2022-09-21T16:10:08;1.70;;;1.60;;
74821;SDS011;63353;48.702;8.884;2022-09-21T16:13:03;1.20;;;1.20;;
74821;SDS011;63353;48.702;8.884;2022-09-21T16:16:08;1.60;;;1.33;;
74821;SDS011;63353;48.702;8.884;2022-09-21T16:18:45;1.20;;;1.20;;
74821;SDS011;63353;48.702;8.884;2022-09-21T16:21:25;1.63;;;1.53;;
74821;SDS011;63353;48.702;8.884;2022-09-21T16:23:56;1.30;;;1.30;;
74821;SDS011;63353;48.702;8.884;2022-09-21T16:26:34;1.57;;;1.50;;
74821;SDS011;63353;48.702;8.884;2022-09-21T16:29:23;1.60;;;1.50;;
74821;SDS011;63353;48.702;8.884;2022-09-21T16:31:49;1.42;;;1.23;;
74821;SDS011;63353;48.702;8.884;2022-09-21T16:34:31;1.60;;;1.50;;
74821;SDS011;63353;48.702;8.884;2022-09-21T16:36:59;1.60;;;1.50;;
74821;SDS011;63353;48.702;8.884;2022-09-21T16:39:26;1.65;;;1.55;;
74821;SDS011;63353;48.702;8.884;2022-09-21T16:42:01;1.73;;;1.67;;
74821;SDS011;63353;48.702;8.884;2022-09-21T16:44:29;1.52;;;1.42;;
74821;SDS011;63353;48.702;8.884;2022-09-21T16:47:04;1.50;;;1.40;;
74821;SDS011;63353;48.702;8.884;2022-09-21T16:49:38;1.60;;;1.50;;
74821;SDS011;63353;48.702;8.884;2022-09-21T16:52:03;17.83;;;11.85;;
74821;SDS011;63353;48.702;8.884;2022-09-21T16:54:31;11.48;;;8.75;;
74821;SDS011;63353;48.702;8.884;2022-09-21T16:56:59;4.63;;;4.22;;
74821;SDS011;63353;48.702;8.884;2022-09-21T16:59:26;5.18;;;4.70;;
74821;SDS011;63353;48.702;8.884;2022-09-21T17:01:54;3.37;;;3.13;;
74821;SDS011;63353;48.702;8.884;2022-09-21T17:04:23;2.70;;;2.50;;
74821;SDS011;63353;48.702;8.884;2022-09-21T17:06:51;3.57;;;3.27;;
74821;SDS011;63353;48.702;8.884;2022-09-21T17:09:19;3.50;;;3.20;;
74821;SDS011;63353;48.702;8.884;2022-09-21T17:11:50;2.40;;;2.30;;
74821;SDS011;63353;48.702;8.884;2022-09-21T17:14:17;10.97;;;10.07;;
74821;SDS011;63353;48.702;8.884;2022-09-21T17:16:48;3.30;;;3.10;;
74821;SDS011;63353;48.702;8.884;2022-09-21T17:19:22;2.53;;;2.43;;
74821;SDS011;63353;48.702;8.884;2022-09-21T17:21:49;2.53;;;2.27;;
74821;SDS011;63353;48.702;8.884;2022-09-21T17:24:14;2.67;;;2.53;;
74821;SDS011;63353;48.702;8.884;2022-09-21T17:26:41;3.53;;;3.20;;
74821;SDS011;63353;48.702;8.884;2022-09-21T17:31:51;2.10;;;1.90;;
74821;SDS011;63353;48.702;8.884;2022-09-21T17:34:19;2.40;;;2.20;;
74821;SDS011;63353;48.702;8.884;2022-09-21T17:36:50;2.57;;;2.37;;
74821;SDS011;63353;48.702;8.884;2022-09-21T17:39:17;2.00;;;1.90;;
74821;SDS011;63353;48.702;8.884;2022-09-21T17:41:45;3.47;;;2.30;;
74821;SDS011;63353;48.702;8.884;2022-09-21T17:47:39;3.30;;;3.00;;
74821;SDS011;63353;48.702;8.884;2022-09-21T17:52:37;4.07;;;3.63;;
74821;SDS011;63353;48.702;8.884;2022-09-21T17:55:23;15.27;;;9.63;;
74821;SDS011;63353;48.702;8.884;2022-09-21T18:01:00;9.27;;;7.13;;
74821;SDS011;63353;48.702;8.884;2022-09-21T18:03:34;7.40;;;6.57;;
74821;SDS011;63353;48.702;8.884;2022-09-21T18:06:10;5.50;;;4.30;;
74821;SDS011;63353;48.702;8.884;2022-09-21T18:08:37;4.37;;;4.07;;
74821;SDS011;63353;48.702;8.884;2022-09-21T18:16:39;3.10;;;2.87;;
74821;SDS011;63353;48.702;8.884;2022-09-21T18:25:05;3.83;;;3.50;;
74821;SDS011;63353;48.702;8.884;2022-09-21T18:27:39;3.70;;;3.30;;
74821;SDS011;63353;48.702;8.884;2022-09-21T18:30:09;4.00;;;2.53;;
74821;SDS011;63353;48.702;8.884;2022-09-21T18:32:45;2.97;;;2.77;;
74821;SDS011;63353;48.702;8.884;2022-09-21T18:35:29;2.70;;;2.50;;
74821;SDS011;63353;48.702;8.884;2022-09-21T18:39:04;2.60;;;2.40;;
74821;SDS011;63353;48.702;8.884;2022-09-21T18:42:15;2.80;;;2.60;;
74821;SDS011;63353;48.702;8.884;2022-09-21T18:44:47;2.60;;;2.40;;
74821;SDS011;63353;48.702;8.884;2022-09-21T18:47:29;4.77;;;2.70;;
74821;SDS011;63353;48.702;8.884;2022-09-21T18:50:05;2.67;;;2.47;;
74821;SDS011;63353;48.702;8.884;2022-09-21T18:55:32;3.57;;;2.60;;